Time;durP1;ratioP1;P1;durP2;ratioP2;P2;SDS_P1;SDS_P2;PMS_P1;PMS_P2;Temp;Humidity;BMP_temperature;BMP_pressure;BME280_temperature;BME280_humidity;BME280_pressure;Samples;Min_cycle;Max_cycle;Signal;HPM_P1;HPM_P2
2021/09/22 00:01:59;;;;;;;18.08;8.70;;;14.70;99.90;;;;;;4888200;29;20044;-87
2021/09/22 00:04:49;;;;;;;20.42;9.93;;;14.60;99.90;;;;;;4893329;29;20075;-86
2021/09/22 00:07:20;;;;;;;20.10;8.68;;;14.60;99.90;;;;;;4885204;29;20051;-89
2021/09/22 00:10:01;;;;;;;17.00;8.90;;;14.60;99.90;;;;;;4882056;29;20063;-86
2021/09/22 00:12:35;;;;;;;17.58;8.95;;;14.50;99.90;;;;;;4898651;29;20135;-87
2021/09/22 00:15:14;;;;;;;19.63;9.55;;;14.40;99.90;;;;;;4891887;29;20056;-87
2021/09/22 00:17:50;;;;;;;17.75;8.80;;;14.50;99.90;;;;;;4887220;29;20053;-89
2021/09/22 00:20:25;;;;;;;22.15;9.15;;;14.50;99.90;;;;;;4875076;29;20044;-89
2021/09/22 00:23:07;;;;;;;24.58;8.85;;;14.40;99.90;;;;;;4867753;29;20060;-88
2021/09/22 00:25:42;;;;;;;20.40;9.23;;;14.40;99.90;;;;;;4886509;29;20042;-89
2021/09/22 00:28:25;;;;;;;22.65;10.73;;;14.40;99.90;;;;;;4883284;29;20053;-87
2021/09/22 00:31:43;;;;;;;20.23;8.82;;;14.30;99.90;;;;;;4899592;29;20060;-89
2021/09/22 00:34:18;;;;;;;17.50;10.02;;;14.40;99.90;;;;;;4883428;29;20036;-87
2021/09/22 00:36:57;;;;;;;22.23;11.05;;;14.20;99.90;;;;;;4884391;29;20067;-91
2021/09/22 00:39:40;;;;;;;21.73;9.35;;;14.20;99.90;;;;;;4886718;29;20063;-90
2021/09/22 00:42:17;;;;;;;20.20;8.30;;;14.20;99.90;;;;;;4891326;29;20047;-89
2021/09/22 00:45:22;;;;;;;21.38;10.43;;;14.10;99.90;;;;;;4608734;27;13222143;-88
2021/09/22 00:48:45;;;;;;;21.15;8.85;;;14.10;99.90;;;;;;5016361;23;20040;-88
2021/09/22 00:51:23;;;;;;;18.85;9.77;;;14.10;99.90;;;;;;4951580;29;20048;-87
2021/09/22 00:54:44;;;;;;;25.25;11.05;;;14.10;99.90;;;;;;4961994;29;20070;-87
2021/09/22 00:57:30;;;;;;;18.92;9.65;;;14.40;99.90;;;;;;4938498;29;20055;-90
2021/09/22 01:00:44;;;;;;;21.88;11.00;;;13.90;99.90;;;;;;4942792;29;20052;-88
2021/09/22 01:03:35;;;;;;;16.50;8.82;;;14.20;99.90;;;;;;4938962;29;20064;-91
2021/09/22 01:06:24;;;;;;;22.58;9.45;;;13.90;99.90;;;;;;4963626;28;20036;-87
2021/09/22 01:09:18;;;;;;;17.05;8.63;;;13.90;99.90;;;;;;4933552;29;20066;-89
2021/09/22 01:12:09;;;;;;;18.10;9.77;;;13.90;99.90;;;;;;4954920;29;20044;-87
2021/09/22 01:14:45;;;;;;;18.92;9.60;;;13.90;99.90;;;;;;4933469;29;20058;-88
2021/09/22 01:17:28;;;;;;;18.40;9.32;;;13.90;99.90;;;;;;4918168;29;20058;-89
2021/09/22 01:20:07;;;;;;;18.42;10.27;;;13.90;99.90;;;;;;4934296;29;20042;-89
2021/09/22 01:22:48;;;;;;;20.42;9.50;;;13.80;99.90;;;;;;4922348;29;20044;-88
2021/09/22 01:25:35;;;;;;;20.13;10.90;;;13.80;99.90;;;;;;4929468;29;20063;-90
2021/09/22 01:28:28;;;;;;;21.80;11.15;;;13.90;99.90;;;;;;4945261;29;20063;-90
2021/09/22 01:31:14;;;;;;;20.98;11.23;;;13.80;99.90;;;;;;4913883;29;20072;-88
2021/09/22 01:34:11;;;;;;;18.40;9.48;;;13.80;99.90;;;;;;4928307;29;20041;-90
2021/09/22 01:37:27;;;;;;;25.02;9.60;;;13.80;99.90;;;;;;4917982;29;20044;-90
2021/09/22 01:40:23;;;;;;;18.08;10.93;;;13.80;99.90;;;;;;4939138;29;20040;-87
2021/09/22 01:43:06;;;;;;;17.35;9.65;;;13.70;99.90;;;;;;4946373;29;20044;-87
2021/09/22 01:49:30;;;;;;;21.17;11.05;;;13.80;99.90;;;;;;4984001;28;20051;-88
2021/09/22 01:52:42;;;;;;;21.55;10.48;;;13.80;99.90;;;;;;4969284;28;20053;-89
2021/09/22 01:55:36;;;;;;;16.08;9.15;;;13.70;99.90;;;;;;4932844;29;20528;-89
2021/09/22 01:59:27;;;;;;;20.08;9.35;;;13.70;99.90;;;;;;4958889;29;20055;-87
2021/09/22 02:02:26;;;;;;;21.30;10.55;;;13.20;99.90;;;;;;4943381;29;20039;-87
2021/09/22 02:05:34;;;;;;;18.70;9.95;;;13.50;99.90;;;;;;4969417;28;20043;-86
2021/09/22 02:09:03;;;;;;;20.40;10.40;;;13.50;99.90;;;;;;4952396;29;20040;-89
2021/09/22 02:15:07;;;;;;;26.35;9.65;;;13.50;99.90;;;;;;4936751;29;20055;-90
2021/09/22 02:17:56;;;;;;;19.13;9.88;;;13.40;99.90;;;;;;4930349;29;20051;-89
2021/09/22 02:20:41;;;;;;;19.08;8.82;;;13.40;99.90;;;;;;4930132;29;20065;-88
2021/09/22 02:23:28;;;;;;;19.98;10.38;;;13.40;99.90;;;;;;4926873;28;20051;-89
2021/09/22 02:26:11;;;;;;;23.27;11.20;;;13.40;99.90;;;;;;4973441;28;20045;-90
2021/09/22 02:28:53;;;;;;;21.90;10.10;;;13.40;99.90;;;;;;4945159;29;20054;-89
2021/09/22 02:35:26;;;;;;;16.92;8.93;;;13.40;99.90;;;;;;4975002;29;20051;-89
2021/09/22 02:38:31;;;;;;;18.95;9.35;;;13.40;99.90;;;;;;4975078;29;20047;-87
2021/09/22 02:41:37;;;;;;;22.45;9.98;;;13.30;99.90;;;;;;4943086;29;20074;-89
2021/09/22 02:48:24;;;;;;;17.98;8.70;;;13.30;99.90;;;;;;5029451;23;20047;-88
2021/09/22 02:50:56;;;;;;;21.67;10.10;;;13.30;99.90;;;;;;4948488;29;20066;-88
2021/09/22 02:53:29;;;;;;;17.60;9.35;;;13.10;99.90;;;;;;4926941;28;20063;-88
2021/09/22 02:56:05;;;;;;;19.20;8.70;;;13.20;99.90;;;;;;4959283;28;20049;-88
2021/09/22 02:58:41;;;;;;;17.33;8.43;;;13.20;99.90;;;;;;4944001;29;20051;-88
2021/09/22 03:01:13;;;;;;;18.80;8.32;;;13.10;99.90;;;;;;4932033;29;20055;-88
2021/09/22 03:03:45;;;;;;;29.00;10.13;;;13.10;99.90;;;;;;4952028;29;20057;-88
2021/09/22 03:06:32;;;;;;;20.63;10.20;;;13.20;99.90;;;;;;4924586;29;20062;-89
2021/09/22 03:09:12;;;;;;;23.42;9.38;;;13.10;99.90;;;;;;4932134;29;20063;-88
2021/09/22 03:11:44;;;;;;;23.98;8.15;;;13.10;99.90;;;;;;4927304;29;20055;-90
2021/09/22 03:14:17;;;;;;;17.63;9.55;;;13.10;99.90;;;;;;4937874;29;20048;-89
2021/09/22 03:16:53;;;;;;;18.38;9.05;;;13.00;99.90;;;;;;4959804;29;20051;-88
2021/09/22 03:19:31;;;;;;;19.88;9.15;;;13.00;99.90;;;;;;4945610;29;20047;-88
2021/09/22 03:22:07;;;;;;;18.55;9.13;;;13.00;99.90;;;;;;4930939;28;20047;-89
2021/09/22 03:25:33;;;;;;;21.52;9.43;;;13.00;99.90;;;;;;4953584;29;20054;-88
2021/09/22 03:28:04;;;;;;;19.58;8.70;;;13.00;99.90;;;;;;4949484;29;20048;-87
2021/09/22 03:30:45;;;;;;;19.92;8.57;;;12.90;99.90;;;;;;4930859;29;20048;-89
2021/09/22 03:33:30;;;;;;;18.38;8.93;;;12.90;99.90;;;;;;4923965;29;20367;-89
2021/09/22 03:35:59;;;;;;;18.27;9.35;;;12.90;99.90;;;;;;4932882;29;20043;-87
2021/09/22 03:38:28;;;;;;;20.38;9.02;;;12.80;99.90;;;;;;4935498;29;20062;-86
2021/09/22 03:41:03;;;;;;;17.67;8.70;;;12.80;99.90;;;;;;4955464;29;20050;-87
2021/09/22 03:43:34;;;;;;;21.65;9.90;;;12.80;99.90;;;;;;4936306;29;20054;-87
2021/09/22 03:46:07;;;;;;;15.55;8.90;;;12.80;99.90;;;;;;4933958;29;20055;-89
2021/09/22 03:48:38;;;;;;;17.98;8.27;;;12.90;99.90;;;;;;4960828;29;20036;-87
2021/09/22 03:51:12;;;;;;;13.68;7.55;;;12.70;99.90;;;;;;4920505;29;20054;-89
2021/09/22 03:53:43;;;;;;;19.77;10.75;;;12.70;99.90;;;;;;4920609;29;20053;-88
2021/09/22 03:56:14;;;;;;;17.00;8.18;;;12.70;99.90;;;;;;4951280;29;20047;-87
2021/09/22 03:58:46;;;;;;;21.40;8.48;;;12.70;99.90;;;;;;4947636;29;20125;-88
2021/09/22 04:01:16;;;;;;;19.15;9.27;;;12.60;99.90;;;;;;4933904;29;20055;-88
2021/09/22 04:03:48;;;;;;;17.55;7.65;;;13.60;99.90;;;;;;4934802;29;20055;-88
2021/09/22 04:06:21;;;;;;;17.38;8.18;;;12.70;99.90;;;;;;4934169;29;20056;-88
2021/09/22 04:08:58;;;;;;;17.70;9.13;;;12.60;99.90;;;;;;4933955;29;20047;-87
2021/09/22 04:11:43;;;;;;;18.88;9.18;;;12.60;99.90;;;;;;4949934;29;20048;-87
2021/09/22 04:14:13;;;;;;;17.58;9.43;;;13.00;99.90;;;;;;4904267;29;20058;-87
2021/09/22 04:16:42;;;;;;;21.20;9.00;;;12.70;99.90;;;;;;4952827;29;20047;-87
2021/09/22 04:19:12;;;;;;;18.42;9.20;;;12.60;99.90;;;;;;4930606;29;20047;-88
2021/09/22 04:21:45;;;;;;;18.45;9.07;;;12.50;99.90;;;;;;4925605;29;20059;-88
2021/09/22 04:24:15;;;;;;;22.65;9.95;;;12.50;99.90;;;;;;4934508;29;20051;-87
2021/09/22 04:26:44;;;;;;;18.80;8.35;;;12.70;99.90;;;;;;4951449;29;20054;-86
2021/09/22 04:29:23;;;;;;;20.80;9.02;;;12.50;99.90;;;;;;4920358;29;20047;-88
2021/09/22 04:32:15;;;;;;;20.83;10.27;;;12.40;99.90;;;;;;4933230;29;20055;-87
2021/09/22 04:35:06;;;;;;;14.02;8.43;;;13.20;99.90;;;;;;4923529;29;20314;-86
2021/09/22 04:38:19;;;;;;;18.42;9.13;;;12.40;99.90;;;;;;4883950;29;20033;-88
2021/09/22 04:41:24;;;;;;;15.73;9.02;;;12.40;99.90;;;;;;4895292;29;20620;-88
2021/09/22 04:44:11;;;;;;;20.45;10.02;;;12.30;99.90;;;;;;4929835;29;20052;-87
2021/09/22 04:46:59;;;;;;;22.45;10.50;;;12.30;99.90;;;;;;4947144;29;20060;-88
2021/09/22 04:49:50;;;;;;;15.57;8.68;;;12.30;99.90;;;;;;4952087;29;20044;-87
2021/09/22 04:52:38;;;;;;;19.75;9.88;;;12.30;99.90;;;;;;4950758;29;20055;-88
2021/09/22 04:55:26;;;;;;;20.90;10.30;;;12.30;99.90;;;;;;4934049;29;20078;-87
2021/09/22 04:58:13;;;;;;;19.58;9.43;;;12.30;99.90;;;;;;4929970;29;20050;-87
2021/09/22 05:01:03;;;;;;;22.15;9.90;;;12.20;99.90;;;;;;4926105;29;20060;-87
2021/09/22 05:04:09;;;;;;;20.90;10.18;;;12.20;99.90;;;;;;4909742;29;20052;-87
2021/09/22 05:07:04;;;;;;;18.60;10.60;;;12.20;99.90;;;;;;4950520;29;20051;-87
2021/09/22 05:09:51;;;;;;;23.23;10.85;;;12.10;99.90;;;;;;4934490;29;20060;-86
2021/09/22 05:12:43;;;;;;;19.90;9.90;;;12.10;99.90;;;;;;4944412;29;20042;-87
2021/09/22 05:15:32;;;;;;;22.23;10.63;;;12.00;99.90;;;;;;4950877;29;20048;-89
2021/09/22 05:18:23;;;;;;;20.13;10.80;;;12.10;99.90;;;;;;4935444;29;20054;-88
2021/09/22 05:21:12;;;;;;;20.02;10.88;;;12.10;99.90;;;;;;4933410;29;20051;-87
2021/09/22 05:24:02;;;;;;;26.77;10.50;;;12.10;99.90;;;;;;4946506;29;20057;-87
2021/09/22 05:27:12;;;;;;;21.42;9.95;;;12.10;99.90;;;;;;4942152;29;20058;-86
2021/09/22 05:30:31;;;;;;;21.58;9.35;;;12.00;99.90;;;;;;4920027;29;20078;-86
2021/09/22 05:33:50;;;;;;;23.48;10.70;;;12.80;99.90;;;;;;4919535;29;20055;-86
2021/09/22 05:36:40;;;;;;;19.60;10.55;;;12.00;99.90;;;;;;4941097;29;20051;-86
2021/09/22 05:39:33;;;;;;;22.48;9.55;;;11.60;99.90;;;;;;4906565;29;20661;-86
2021/09/22 05:43:17;;;;;;;24.52;10.65;;;11.30;99.90;;;;;;4952891;29;20036;-87
2021/09/22 05:46:21;;;;;;;21.58;12.60;;;11.90;99.90;;;;;;4948596;29;20426;-86
2021/09/22 05:49:10;;;;;;;23.75;11.80;;;11.90;99.90;;;;;;4932254;29;20057;-86
2021/09/22 05:52:02;;;;;;;21.63;10.52;;;11.80;99.90;;;;;;4954675;29;20043;-86
2021/09/22 05:54:56;;;;;;;21.65;10.50;;;11.90;99.90;;;;;;4939183;29;20080;-86
2021/09/22 05:57:51;;;;;;;19.38;10.75;;;11.80;99.90;;;;;;4947716;29;20299;-86
2021/09/22 06:00:56;;;;;;;24.65;11.02;;;11.90;99.90;;;;;;4936053;29;20569;-87
2021/09/22 06:05:15;;;;;;;18.63;9.00;;;11.80;99.90;;;;;;4881153;29;20098;-87
2021/09/22 06:08:35;;;;;;;23.08;9.98;;;12.30;99.90;;;;;;4866836;29;20051;-88
2021/09/22 06:11:16;;;;;;;20.88;9.75;;;11.80;99.90;;;;;;4887364;29;20053;-87
2021/09/22 06:14:00;;;;;;;20.52;11.13;;;11.80;99.90;;;;;;4864047;29;20076;-86
2021/09/22 06:16:46;;;;;;;21.92;11.80;;;11.90;99.90;;;;;;4865986;29;20063;-87
2021/09/22 06:19:28;;;;;;;18.02;9.57;;;11.80;99.90;;;;;;4880672;29;20057;-87
2021/09/22 06:22:26;;;;;;;20.58;11.27;;;11.80;99.90;;;;;;4865204;29;20064;-87
2021/09/22 06:25:02;;;;;;;17.90;9.70;;;11.60;99.90;;;;;;4879326;29;20052;-89
2021/09/22 06:27:46;;;;;;;23.30;11.30;;;11.80;99.90;;;;;;4911346;29;20050;-88
2021/09/22 06:30:39;;;;;;;26.95;12.38;;;11.80;99.90;;;;;;4931326;29;20053;-87
2021/09/22 06:33:14;;;;;;;27.85;12.30;;;11.90;99.90;;;;;;4917725;29;20044;-86
2021/09/22 06:35:59;;;;;;;21.17;10.68;;;12.00;99.90;;;;;;4941007;29;20057;-87
2021/09/22 06:38:38;;;;;;;22.45;10.38;;;12.00;99.90;;;;;;4914208;29;20062;-87
2021/09/22 06:41:12;;;;;;;30.50;11.60;;;12.00;99.90;;;;;;4924361;29;20054;-87
2021/09/22 06:43:58;;;;;;;25.77;12.55;;;12.50;99.90;;;;;;4940061;29;20067;-88
2021/09/22 06:46:34;;;;;;;27.77;12.10;;;12.20;99.90;;;;;;4936900;29;20056;-88
2021/09/22 07:13:27;;;;;;;;;;;;;;;;;;;;;
2021/09/22 07:18:09;;;;;;;;;;;;;;;;;;;;;
2021/09/22 07:22:17;;;;;;;;;;;;;;;;;;;;;
2021/09/22 07:30:26;;;;;;;26.20;13.45;;;12.90;99.90;;;;;;4720819;30;20421;-85
2021/09/22 07:33:59;;;;;;;30.17;16.05;;;13.50;99.90;;;;;;4728226;30;20566;-86
2021/09/22 07:36:52;;;;;;;36.20;16.30;;;13.80;99.90;;;;;;4812891;29;20060;-88
2021/09/22 07:39:21;;;;;;;25.85;12.18;;;13.80;99.90;;;;;;4843677;29;20053;-87
2021/09/22 07:42:02;;;;;;;25.58;12.35;;;13.90;99.90;;;;;;4873501;29;20052;-88
2021/09/22 07:44:36;;;;;;;22.75;11.90;;;14.00;99.90;;;;;;4858735;29;20054;-87
2021/09/22 07:47:41;;;;;;;29.33;12.60;;;16.00;99.90;;;;;;4857417;29;20087;-89
2021/09/22 07:50:12;;;;;;;20.75;10.52;;;14.20;99.90;;;;;;4916753;29;20044;-87
2021/09/22 07:52:45;;;;;;;22.48;11.80;;;14.70;99.90;;;;;;4933217;29;20061;-86
2021/09/22 07:55:25;;;;;;;23.60;10.73;;;14.70;99.90;;;;;;4932544;29;20497;-87
2021/09/22 07:58:01;;;;;;;19.25;10.55;;;13.70;99.90;;;;;;4918944;29;20056;-88
2021/09/22 08:00:37;;;;;;;24.45;11.25;;;14.00;99.90;;;;;;4935280;29;20044;-87
2021/09/22 08:03:09;;;;;;;29.45;10.73;;;14.60;99.90;;;;;;4935108;29;20071;-88
2021/09/22 08:05:39;;;;;;;21.63;10.38;;;14.90;99.90;;;;;;4915791;29;20070;-87
2021/09/22 08:08:18;;;;;;;20.05;7.47;;;14.90;99.90;;;;;;4926678;29;20044;-85
2021/09/22 08:10:50;;;;;;;18.42;8.85;;;15.00;99.90;;;;;;4948497;29;20071;-87
2021/09/22 08:13:50;;;;;;;22.50;9.87;;;15.00;99.90;;;;;;4942601;29;20044;-87
2021/09/22 08:16:32;;;;;;;20.02;8.85;;;15.10;99.90;;;;;;4923335;29;20294;-88
2021/09/22 08:19:04;;;;;;;18.48;8.20;;;15.20;99.90;;;;;;4899237;29;20062;-89
2021/09/22 08:21:57;;;;;;;14.93;8.27;;;15.30;99.90;;;;;;4924050;29;20521;-86
2021/09/22 08:24:30;;;;;;;20.85;7.28;;;15.10;99.90;;;;;;4903091;29;20066;-89
2021/09/22 08:27:12;;;;;;;14.80;6.72;;;15.50;99.90;;;;;;4919607;29;20054;-87
2021/09/22 08:30:17;;;;;;;22.95;9.98;;;15.70;99.90;;;;;;4935678;29;20038;-86
2021/09/22 08:32:56;;;;;;;14.43;6.78;;;15.70;99.90;;;;;;4945565;29;20020;-86
2021/09/22 08:40:14;;;;;;;22.02;6.43;;;15.90;99.90;;;;;;4887039;29;20041;-85
2021/09/22 08:42:44;;;;;;;14.82;5.90;;;14.90;99.90;;;;;;4854654;29;20042;-87
2021/09/22 08:50:45;;;;;;;12.30;5.22;;;16.20;99.90;;;;;;4827747;29;20058;-87
2021/09/22 08:53:49;;;;;;;17.00;5.93;;;16.30;99.90;;;;;;4841240;29;20060;-87
2021/09/22 08:56:29;;;;;;;14.63;4.65;;;16.50;99.90;;;;;;4843966;29;20042;-89
2021/09/22 09:04:30;;;;;;;14.75;6.00;;;17.20;99.90;;;;;;5229744;23;20040;-93
2021/09/22 09:19:59;;;;;;;11.15;4.90;;;17.30;99.90;;;;;;4912602;24;20041;-93
2021/09/22 09:23:17;;;;;;;16.02;5.60;;;17.60;99.90;;;;;;4868884;29;20064;-94
2021/09/22 09:26:31;;;;;;;12.50;4.63;;;17.40;99.90;;;;;;4988634;24;20054;-91
2021/09/22 09:30:21;;;;;;;16.20;5.07;;;17.20;99.90;;;;;;4850800;29;20038;-92
2021/09/22 09:34:03;;;;;;;11.68;4.25;;;17.60;99.90;;;;;;4849410;29;20044;-92
2021/09/22 09:37:00;;;;;;;8.93;3.80;;;17.60;99.90;;;;;;4850758;29;20034;-93
2021/09/22 09:39:52;;;;;;;10.65;4.70;;;16.60;99.90;;;;;;4833197;29;20033;-93
2021/09/22 09:43:00;;;;;;;10.02;3.78;;;17.70;99.90;;;;;;4821168;29;20060;-92
2021/09/22 09:47:35;;;;;;;;;;;;;;;;;;;;;
2021/09/22 09:50:53;;;;;;;11.18;3.58;;;18.00;99.90;;;;;;4781523;29;20063;-85
2021/09/22 09:54:04;;;;;;;12.02;3.47;;;18.10;99.90;;;;;;4798080;29;20061;-84
2021/09/22 09:56:55;;;;;;;10.63;3.30;;;19.60;99.90;;;;;;4794407;29;20089;-85
2021/09/22 10:00:37;;;;;;;4.32;2.35;;;18.20;99.90;;;;;;4807082;29;20074;-86
2021/09/22 10:03:18;;;;;;;9.38;3.63;;;18.60;99.90;;;;;;4740292;30;20083;-85
2021/09/22 10:05:57;;;;;;;6.63;2.60;;;18.40;99.90;;;;;;4766414;30;20047;-86
2021/09/22 10:08:45;;;;;;;7.03;2.78;;;18.50;99.90;;;;;;4791154;29;20063;-86
2021/09/22 10:11:13;;;;;;;10.20;2.55;;;18.60;99.90;;;;;;4795090;29;20047;-85
2021/09/22 10:13:44;;;;;;;11.45;2.10;;;18.70;99.90;;;;;;4783053;29;20048;-87
2021/09/22 10:16:16;;;;;;;6.95;3.15;;;18.80;99.90;;;;;;4791897;29;20059;-87
2021/09/22 10:19:11;;;;;;;;;;;;;;;;;;;;;
2021/09/22 10:21:57;;;;;;;7.67;2.60;;;18.90;99.90;;;;;;4777519;30;20070;-84
2021/09/22 10:24:56;;;;;;;11.50;3.85;;;18.90;99.90;;;;;;5118999;28;20407;-84
2021/09/22 10:27:52;;;;;;;3.70;2.63;;;19.00;99.90;;;;;;5100246;27;20405;-86
2021/09/22 10:31:36;;;;;;;9.07;3.40;;;19.00;99.90;;;;;;5107645;28;20187;-86
2021/09/22 10:34:31;;;;;;;5.43;2.80;;;19.10;99.90;;;;;;5052851;27;2033649;-88
2021/09/22 10:37:32;;;;;;;7.53;3.60;;;19.20;99.90;;;;;;5135412;27;20751;-87
2021/09/22 10:40:39;;;;;;;8.07;2.33;;;19.20;99.90;;;;;;5195717;27;20403;-88
2021/09/22 10:57:34;;;;;;;11.02;5.10;;;19.70;99.90;;;;;;5098950;27;20402;-85
2021/09/22 11:01:31;;;;;;;6.25;3.28;;;19.50;99.90;;;;;;4902251;27;4428652;-86
2021/09/22 11:05:13;;;;;;;12.02;3.72;;;19.60;99.30;;;;;;5110643;27;20407;-87
2021/09/22 11:19:02;;;;;;;12.95;3.25;;;19.70;99.60;;;;;;5112842;27;20413;-85
2021/09/22 11:38:57;;;;;;;10.82;4.00;;;21.70;97.60;;;;;;6091071;23;20217;-82
2021/09/22 11:59:38;;;;;;;12.10;3.13;;;21.20;96.10;;;;;;5105614;27;20561;-84
2021/09/22 12:03:23;;;;;;;;;;;;;;;;;;;;;
2021/09/22 12:07:04;;;;;;;8.70;3.10;;;22.10;95.50;;;;;;5058250;27;1391468;-88
2021/09/22 12:10:03;;;;;;;8.68;2.90;;;21.60;96.10;;;;;;4664462;27;11131097;-84
2021/09/22 12:13:59;;;;;;;14.77;2.88;;;21.70;95.80;;;;;;5102470;28;20429;-88
2021/09/22 12:17:44;;;;;;;8.02;2.55;;;21.00;95.20;;;;;;5101547;27;20377;-91
2021/09/22 12:32:07;;;;;;;7.20;3.07;;;21.90;95.00;;;;;;5204503;22;23097439;-83
2021/09/22 12:40:52;;;;;;;;;;;;;;;;;;;;;
2021/09/22 12:59:32;;;;;;;6.10;3.38;;;22.30;94.70;;;;;;5092010;27;20390;-80
2021/09/22 13:02:43;;;;;;;10.75;4.13;;;22.20;96.10;;;;;;5126867;27;20770;-83
2021/09/22 13:05:52;;;;;;;9.68;3.30;;;22.40;95.10;;;;;;5117104;27;20441;-85
2021/09/22 13:08:58;;;;;;;6.77;3.03;;;22.60;95.10;;;;;;4484227;27;18000964;-91
2021/09/22 13:13:14;;;;;;;12.50;3.20;;;22.50;94.40;;;;;;5088177;27;20407;-82
2021/09/22 13:16:34;;;;;;;9.48;4.22;;;22.80;94.60;;;;;;4994103;27;1429894;-86
2021/09/22 13:20:06;;;;;;;10.88;3.30;;;22.40;94.50;;;;;;5122424;27;20408;-89
2021/09/22 13:23:24;;;;;;;6.53;2.75;;;22.60;94.40;;;;;;5080884;28;20784;-84
2021/09/22 13:27:05;;;;;;;5.93;2.47;;;22.40;94.00;;;;;;4970251;27;2551165;-85
2021/09/22 13:31:43;;;;;;;7.82;2.92;;;22.60;94.40;;;;;;5091447;28;20373;-85
2021/09/22 13:55:15;;;;;;;6.40;3.92;;;21.80;94.40;;;;;;6083510;23;20030;-86
2021/09/22 14:03:44;;;;;;;4.63;2.20;;;22.20;94.30;;;;;;4321424;22;22605074;-87
2021/09/22 14:17:07;;;;;;;4.70;3.03;;;22.50;93.90;;;;;;5662267;21;15084575;-85
2021/09/22 15:04:31;;;;;;;7.13;2.58;;;22.10;94.30;;;;;;5166304;27;20420;-90
2021/09/22 15:18:59;;;;;;;;;;;;;;;;;;;;;
2021/09/22 15:55:59;;;;;;;5.68;1.80;;;26.50;87.10;;;;;;5644279;22;15130435;-85
2021/09/22 15:58:58;;;;;;;13.10;3.25;;;26.50;86.40;;;;;;5076022;27;20453;-87
2021/09/22 16:01:40;;;;;;;6.28;2.25;;;26.40;86.70;;;;;;5005919;27;1571804;-89
2021/09/22 16:06:06;;;;;;;6.13;2.50;;;26.20;87.00;;;;;;4244452;27;25491202;-86
2021/09/22 16:23:38;;;;;;;6.35;2.60;;;26.20;85.30;;;;;;6212743;23;20360;-84
2021/09/22 16:26:17;;;;;;;7.10;2.47;;;25.60;86.10;;;;;;5056672;27;1550465;-87
2021/09/22 16:42:01;;;;;;;8.63;3.25;;;23.70;89.90;;;;;;5584442;22;15062965;-84
2021/09/22 16:49:10;;;;;;;9.13;3.05;;;23.00;90.60;;;;;;5015117;27;2679872;-87
2021/09/22 16:52:34;;;;;;;10.20;3.92;;;22.50;91.10;;;;;;5101738;27;20417;-84
2021/09/22 16:55:21;;;;;;;11.85;3.88;;;22.30;91.80;;;;;;4604737;27;15071680;-88
2021/09/22 16:58:16;;;;;;;6.25;2.97;;;22.10;91.80;;;;;;5094337;27;20419;-88
2021/09/22 17:01:01;;;;;;;6.18;2.55;;;22.00;92.10;;;;;;5093514;27;20378;-86
2021/09/22 17:03:44;;;;;;;8.43;3.47;;;21.90;92.10;;;;;;5062733;28;20255;-86
2021/09/22 17:06:25;;;;;;;7.03;3.30;;;21.70;92.30;;;;;;5061709;27;1530402;-86
2021/09/22 17:09:28;;;;;;;10.15;3.60;;;21.70;92.80;;;;;;5095406;27;1649236;-88
2021/09/22 17:12:20;;;;;;;6.53;3.25;;;21.60;92.60;;;;;;5118213;27;20442;-87
2021/09/22 17:15:35;;;;;;;9.90;3.10;;;21.50;92.60;;;;;;5130730;27;20458;-86
2021/09/22 17:18:41;;;;;;;13.50;3.88;;;21.40;92.90;;;;;;5193837;27;20402;-86
2021/09/22 17:21:26;;;;;;;7.37;3.57;;;20.30;92.90;;;;;;4675324;27;12326641;-87
2021/09/22 17:24:10;;;;;;;10.35;3.08;;;20.90;93.40;;;;;;4977479;27;2651487;-88
2021/09/22 17:27:23;;;;;;;8.57;3.60;;;21.00;93.40;;;;;;5132053;27;20425;-85
2021/09/22 17:30:33;;;;;;;9.63;3.78;;;20.80;94.00;;;;;;5137090;22;20364;-88
2021/09/22 17:43:54;;;;;;;10.05;3.65;;;20.80;94.00;;;;;;4930000;27;5722282;-86
2021/09/22 17:57:27;;;;;;;8.35;3.92;;;20.40;94.20;;;;;;5060245;27;1692850;-86
2021/09/22 18:00:17;;;;;;;7.53;3.95;;;19.80;95.40;;;;;;5028654;27;2531982;-87
2021/09/22 18:02:59;;;;;;;8.40;4.03;;;19.70;95.20;;;;;;4992608;27;3265176;-83
2021/09/22 18:05:39;;;;;;;9.77;4.43;;;19.70;95.50;;;;;;5029358;27;2625100;-86
2021/09/22 18:08:35;;;;;;;7.72;4.03;;;19.60;95.60;;;;;;5067998;27;20409;-86
2021/09/22 18:11:08;;;;;;;;;;;19.50;96.00;;;;;;5206373;22;20049;-85
2021/09/22 18:13:43;;;;;;;6.80;3.60;;;20.40;96.70;;;;;;5049406;28;19928;-84
2021/09/22 18:16:30;;;;;;;14.18;5.32;;;19.30;96.30;;;;;;5031918;28;20042;-86
2021/09/22 18:19:07;;;;;;;14.20;5.95;;;18.30;96.20;;;;;;5060595;28;20052;-86
2021/09/22 18:21:59;;;;;;;17.65;7.35;;;20.20;96.80;;;;;;5031628;28;20046;-86
2021/09/22 18:24:30;;;;;;;15.18;7.10;;;19.20;96.50;;;;;;5039981;28;20056;-85
2021/09/22 18:27:00;;;;;;;14.70;7.30;;;19.10;96.70;;;;;;5017605;28;20055;-85
2021/09/22 18:29:29;;;;;;;16.02;5.95;;;19.00;96.80;;;;;;5038185;28;20806;-86
2021/09/22 18:31:59;;;;;;;19.85;5.45;;;18.90;96.90;;;;;;5041115;28;20053;-86
2021/09/22 18:34:33;;;;;;;16.92;6.50;;;18.90;97.00;;;;;;5038307;28;20050;-85
2021/09/22 18:37:03;;;;;;;14.40;7.72;;;18.90;97.20;;;;;;5031168;28;20067;-86
2021/09/22 18:39:36;;;;;;;13.18;5.15;;;18.80;97.60;;;;;;5017993;28;20293;-84
2021/09/22 18:42:15;;;;;;;18.48;5.97;;;18.80;97.50;;;;;;5035996;28;20045;-84
2021/09/22 18:44:48;;;;;;;12.27;5.55;;;18.80;97.70;;;;;;5030448;28;20047;-85
2021/09/22 18:47:19;;;;;;;10.05;4.38;;;18.60;97.90;;;;;;5038167;28;20061;-85
2021/09/22 18:49:55;;;;;;;;;;;18.50;97.90;;;;;;5032202;28;20042;-86
2021/09/22 18:52:23;;;;;;;16.23;5.07;;;18.50;98.70;;;;;;5021574;28;19921;-85
2021/09/22 18:54:51;;;;;;;12.55;5.18;;;18.40;98.40;;;;;;5031938;28;20061;-85
2021/09/22 18:57:23;;;;;;;10.85;5.88;;;18.30;98.30;;;;;;5020327;28;20061;-86
2021/09/22 18:59:57;;;;;;;12.00;5.05;;;18.20;98.50;;;;;;5044593;28;20490;-84
2021/09/22 19:02:34;;;;;;;10.07;4.60;;;18.10;98.70;;;;;;5041968;28;20040;-85
2021/09/22 19:05:13;;;;;;;8.00;4.68;;;18.10;99.00;;;;;;5031761;28;20046;-84
2021/09/22 19:08:27;;;;;;;11.95;5.53;;;18.00;99.00;;;;;;5029240;28;21295;-85
2021/09/22 19:11:15;;;;;;;9.30;5.65;;;17.50;99.00;;;;;;5026426;28;20296;-84
2021/09/22 19:13:44;;;;;;;14.98;5.63;;;17.90;99.20;;;;;;5040704;28;20052;-85
2021/09/22 19:16:17;;;;;;;15.45;6.03;;;17.30;99.20;;;;;;5043603;28;20049;-86
2021/09/22 19:19:17;;;;;;;14.93;6.03;;;17.80;99.70;;;;;;5017114;28;20056;-86
2021/09/22 19:21:46;;;;;;;17.08;6.18;;;17.70;99.80;;;;;;5011021;28;20048;-85
2021/09/22 19:24:14;;;;;;;11.68;5.85;;;17.70;99.90;;;;;;5012580;28;20058;-86
2021/09/22 19:26:45;;;;;;;13.20;5.38;;;17.60;99.90;;;;;;5036876;28;20049;-85
2021/09/22 19:29:17;;;;;;;16.20;6.07;;;17.50;99.90;;;;;;5031508;28;20050;-86
2021/09/22 19:31:46;;;;;;;13.02;6.60;;;17.50;99.90;;;;;;5010401;28;20050;-87
2021/09/22 19:34:16;;;;;;;11.50;5.20;;;17.40;99.90;;;;;;5026319;28;20040;-86
2021/09/22 19:36:45;;;;;;;13.82;6.85;;;17.40;99.90;;;;;;5006634;28;20553;-86
2021/09/22 19:39:43;;;;;;;15.65;6.55;;;17.40;99.90;;;;;;5021643;28;20056;-84
2021/09/22 19:43:09;;;;;;;16.55;6.78;;;17.30;99.90;;;;;;5020426;28;20301;-85
2021/09/22 19:46:32;;;;;;;13.93;6.82;;;17.20;99.90;;;;;;5009944;28;20062;-85
2021/09/22 19:50:40;;;;;;;18.23;7.53;;;17.10;99.90;;;;;;5036327;28;20046;-86
2021/09/22 19:59:48;;;;;;;20.25;6.50;;;17.00;99.90;;;;;;5087702;28;20044;-86
2021/09/22 20:02:32;;;;;;;14.68;6.30;;;16.90;99.90;;;;;;5089528;28;20055;-87
2021/09/22 20:06:32;;;;;;;11.00;5.55;;;16.80;99.90;;;;;;5084862;28;20048;-86
2021/09/22 20:09:54;;;;;;;17.20;7.57;;;16.00;99.90;;;;;;5089086;28;20044;-86
2021/09/22 20:12:23;;;;;;;15.18;6.63;;;16.60;99.90;;;;;;5036026;28;20056;-86
2021/09/22 20:14:51;;;;;;;13.85;6.95;;;16.60;99.90;;;;;;5040741;28;20041;-85
2021/09/22 20:17:20;;;;;;;17.48;7.30;;;16.50;99.90;;;;;;5054105;28;20046;-85
2021/09/22 20:19:50;;;;;;;15.50;6.78;;;16.40;99.90;;;;;;5071237;28;20045;-86
2021/09/22 20:22:40;;;;;;;12.85;6.63;;;16.40;99.90;;;;;;5056030;28;20064;-85
2021/09/22 20:26:27;;;;;;;20.88;8.90;;;16.40;99.90;;;;;;5071786;28;20327;-85
2021/09/22 20:29:00;;;;;;;16.55;7.65;;;16.30;99.90;;;;;;5043902;28;20046;-87
2021/09/22 20:31:37;;;;;;;21.05;9.40;;;16.20;99.90;;;;;;5033968;28;20063;-86
2021/09/22 20:34:29;;;;;;;20.85;9.82;;;16.20;99.90;;;;;;5068394;28;20053;-85
2021/09/22 20:37:04;;;;;;;13.85;8.05;;;16.20;99.90;;;;;;5089767;22;20037;-90
2021/09/22 20:40:01;;;;;;;15.55;7.45;;;16.20;99.90;;;;;;5042622;28;20049;-90
2021/09/22 20:42:53;;;;;;;15.95;7.60;;;16.10;99.90;;;;;;5064429;28;20049;-92
2021/09/22 20:45:45;;;;;;;20.13;7.93;;;16.10;99.90;;;;;;5052570;28;20059;-93